Thunder radar more information blitzortung!


Radar de pluja more information rain snow radar


Visita la nostra xarxa de llocs de meteo:

Template documentation
and downloads

And another site



No particular awareness of the weather is required.    There are no Weather-warnings

Pagina Historial Weather Underground text

Diari Resum Marc 7, 2016 Unitats:  Mètric    Imperial   Tant
« Previous Dia
SegĂźent Dia »
Diari Setmana Mensual Anual Personalitzada
  Maxima: Minima: Media:
Temperatura: -17.8 °C -15.4 °C -11.9 °C
Punt de rosada: -17.8 °C -19.9 °C -17.7 °C
Humitat: Humidity % 39 % 48 %
Wind Speed: 0 km/h 0 km/h 9.7 km/h
RĂ fegues de vent: 0 km/h - -
Vent:- - SE
Pression baro: 0 hPa 33992.1 hPa -
Precipitacions: 0 mm    
Historical Graphs
 
 
Dades de taula per Marc 7, 2016
Temps Temperatura Punt de rosada Pression baro Vent Wind Speed RĂ fegues de vent Humitat Rainfall Rate (Hourly)
-17.8 °C -17.8 °C 0 hPa Calm     Humidity % 0 mm
01:30 -15.4 °C -19.8 °C 34063.2 hPa Calm     56 % 0 mm
01:40 -15.3 °C -19.8 °C 34063.2 hPa Calm   2.6 km/h 56 % 0 mm
01:50 -15.2 °C -19.5 °C 34063.2 hPa West 2.6 km/h 5.1 km/h 57 % 0 mm
02:00 -15.1 °C -19.4 °C 34063.2 hPa Calm   2.6 km/h 57 % 0 mm
02:10 -15.1 °C -19.4 °C 34063.2 hPa Calm     57 % 0 mm
02:20 -15.1 °C -19.4 °C 34063.2 hPa Calm     57 % 0 mm
02:30 -15 °C -19.3 °C 34063.2 hPa Calm   2.6 km/h 57 % 0 mm
02:40 -14.6 °C -19 °C 34063.2 hPa Calm   2.6 km/h 57 % 0 mm
02:50 -14.3 °C -18.8 °C 34063.2 hPa NE 5.1 km/h 10.3 km/h 56 % 0 mm
03:00 -14.2 °C -18.8 °C 34063.2 hPa NE 7.7 km/h 10.3 km/h 56 % 0 mm
03:10 -14.3 °C -18.8 °C 34063.2 hPa NE 5.1 km/h 10.3 km/h 56 % 0 mm
03:20 -14.3 °C -18.8 °C 34063.2 hPa NE 7.7 km/h 12.9 km/h 56 % 0 mm
03:30 -14.3 °C -18.8 °C 34063.2 hPa NE 7.7 km/h 12.9 km/h 56 % 0 mm
03:40 -13.6 °C -18.3 °C 34063.2 hPa NE 7.7 km/h 7.7 km/h 55 % 0 mm
03:50 -13.4 °C -18.2 °C 34029.3 hPa NNE 7.7 km/h 7.7 km/h 54 % 0 mm
04:00 -13.2 °C -18.1 °C 34063.2 hPa NE 5.1 km/h 10.3 km/h 54 % 0 mm
04:10 -13.1 °C -18.1 °C 34063.2 hPa NE 5.1 km/h 10.3 km/h 53 % 0 mm
04:20 -12.8 °C -17.9 °C 34063.2 hPa NE 2.6 km/h 5.1 km/h 53 % 0 mm
04:30 -12.7 °C -17.8 °C 34063.2 hPa NE 5.1 km/h 10.3 km/h 53 % 0 mm
04:40 -12.4 °C -17.7 °C 34063.2 hPa NE 2.6 km/h 2.6 km/h 52 % 0 mm
04:50 -12.6 °C -17.8 °C 34063.2 hPa SSE 2.6 km/h 10.3 km/h 52 % 0 mm
10:52 -14.7 °C -19.9 °C 34130.9 hPa WSW 3.1 km/h   51 % 0 mm
10:57 -12.2 °C -17.4 °C 34063.2 hPa South 9 km/h 9.3 km/h 52 % 0 mm
11:07 -12 °C -17.3 °C 34063.2 hPa ENE 15 km/h 15 km/h 52 % 0 mm
11:12 -12.2 °C -17.6 °C 34063.2 hPa ENE 11.9 km/h 11.9 km/h 51 % 0 mm
11:17 -12.1 °C -17.5 °C 34063.2 hPa NE 11.9 km/h 11.9 km/h 51 % 0 mm
11:22 -12.1 °C -17.5 °C 34063.2 hPa ENE 8 km/h 8 km/h 51 % 0 mm
11:27 -11.9 °C -17.3 °C 34063.2 hPa NE 11.9 km/h 11.9 km/h 51 % 0 mm
11:32 -11.9 °C -17.3 °C 34063.2 hPa ESE 15 km/h 15 km/h 51 % 0 mm
11:37 -11.9 °C -17.3 °C 34063.2 hPa SW 9 km/h 9 km/h 51 % 0 mm
11:42 -11.9 °C -17.3 °C 34029.3 hPa West 11.9 km/h 11.9 km/h 51 % 0 mm
11:47 -11.9 °C -17.3 °C 34029.3 hPa NNE 15 km/h 15 km/h 51 % 0 mm
11:52 -11.9 °C -17.3 °C 34029.3 hPa ENE 9 km/h 9 km/h 51 % 0 mm
11:57 -11.1 °C -16.7 °C 34029.3 hPa SW 6 km/h 6 km/h 50 % 0 mm
12:02 -11.1 °C -16.7 °C 34029.3 hPa SW 15.3 km/h 15.3 km/h 50 % 0 mm
12:07 -11.1 °C -16.7 °C 34029.3 hPa WNW 9 km/h 9 km/h 50 % 0 mm
12:12 -10.5 °C -16.6 °C 34029.3 hPa NNW 20.9 km/h 20.9 km/h 47 % 0 mm
12:17 -10.3 °C -16.2 °C 34029.3 hPa WSW 11.1 km/h 11.1 km/h 49 % 0 mm
12:22 -10.1 °C -16.2 °C 34029.3 hPa West 6 km/h 6 km/h 48 % 0 mm
12:27 -10.1 °C -16.2 °C 34029.3 hPa SW 17.9 km/h 17.9 km/h 47 % 0 mm
12:37 -10.1 °C -16.6 °C 34029.3 hPa WSW 15.3 km/h 15.3 km/h 45 % 0 mm
12:47 -10.1 °C -16.6 °C 33992.1 hPa WNW 9 km/h 9 km/h 45 % 0 mm
12:52 -10.1 °C -16.6 °C 33992.1 hPa West 17.9 km/h 17.9 km/h 45 % 0 mm
12:57 -10.1 °C -16.8 °C 33992.1 hPa WSW 15 km/h 15 km/h 44 % 0 mm
13:02 -9.9 °C -16.6 °C 33992.1 hPa SW 15 km/h 15 km/h 44 % 0 mm
13:07 -9.9 °C -16.8 °C 33992.1 hPa SW 26.9 km/h 26.9 km/h 43 % 0 mm
13:12 -9.7 °C -16.6 °C 33992.1 hPa WSW 11.9 km/h 11.9 km/h 43 % 0 mm
13:17 -9.7 °C -16.8 °C 33992.1 hPa East 11.9 km/h 11.9 km/h 42 % 0 mm
13:22 -9.3 °C -16.2 °C 33992.1 hPa SW 9 km/h 9 km/h 43 % 0 mm
13:27 -9.5 °C -16.6 °C 33992.1 hPa WSW 11.9 km/h 11.9 km/h 42 % 0 mm
13:32 -9.4 °C -16.7 °C 33992.1 hPa West 15 km/h 15 km/h 41 % 0 mm
13:37 -9.7 °C -17.2 °C 33992.1 hPa WSW 17.9 km/h 17.9 km/h 40 % 0 mm
13:42 -9.6 °C -17.1 °C 33992.1 hPa WSW 26.9 km/h 26.9 km/h 40 % 0 mm
13:47 -9.3 °C -16.8 °C 33992.1 hPa SSW 15 km/h 15 km/h 40 % 0 mm
13:57 -9.3 °C -16.8 °C 33992.1 hPa SSW 15 km/h 15 km/h 40 % 0 mm
14:02 -9.4 °C -17.1 °C 33992.1 hPa SW 15.3 km/h 15.3 km/h 39 % 0 mm
14:07 -9.4 °C -16.9 °C 33992.1 hPa West 12.2 km/h 12.2 km/h 40 % 0 mm
14:17 -9.9 °C -17.3 °C 33992.1 hPa SW 8.5 km/h 8.5 km/h 40 % 0 mm
14:22 -9.9 °C -17.4 °C 33992.1 hPa WNW 11.9 km/h 11.9 km/h 40 % 0 mm
14:27 -9.8 °C -17.3 °C 33992.1 hPa WSW 9.3 km/h 9.3 km/h 40 % 0 mm
14:32 -9.9 °C -17.3 °C 33992.1 hPa West 11.9 km/h 11.9 km/h 40 % 0 mm
14:37 -9.9 °C -17.3 °C 33992.1 hPa West 11.9 km/h 11.9 km/h 40 % 0 mm
14:42 -9.9 °C -17.4 °C 33992.1 hPa WSW 15 km/h 15 km/h 40 % 0 mm
14:47 -10 °C -17.3 °C 33992.1 hPa SW 9 km/h 9 km/h 41 % 0 mm
14:52 -9.8 °C -17.1 °C 33992.1 hPa WSW 15.6 km/h 15.6 km/h 41 % 0 mm
14:57 -9.9 °C -17.2 °C 33992.1 hPa WSW 15 km/h 15 km/h 41 % 0 mm
15:02 -9.8 °C -17.1 °C 33992.1 hPa SW 9.8 km/h 9.8 km/h 41 % 0 mm
15:07 -10 °C -17.3 °C 33992.1 hPa SW 15 km/h 15 km/h 41 % 0 mm
15:12 -10.1 °C -17.3 °C 33992.1 hPa West 17.9 km/h 17.9 km/h 41 % 0 mm
15:17 -10.2 °C -17.4 °C 33992.1 hPa SW 11.9 km/h 11.9 km/h 41 % 0 mm
15:22 -10.2 °C -17.2 °C 33992.1 hPa SW 6 km/h 6 km/h 42 % 0 mm
15:27 -10.2 °C -17.2 °C 33992.1 hPa WSW 8.5 km/h 8.5 km/h 42 % 0 mm
15:32 -10.2 °C -17.2 °C 33992.1 hPa WSW 6 km/h 6 km/h 42 % 0 mm
15:37 -10.2 °C -17.3 °C 33992.1 hPa SW 11.9 km/h 11.9 km/h 42 % 0 mm
15:42 -10.1 °C -17.2 °C 33992.1 hPa WSW 17.9 km/h 17.9 km/h 42 % 0 mm
15:47 -10.1 °C -17.1 °C 33992.1 hPa WSW 6.3 km/h 6.3 km/h 42 % 0 mm
15:52 -9.8 °C -16.9 °C 33992.1 hPa WNW 9 km/h 9 km/h 42 % 0 mm
15:57 -9.7 °C -16.8 °C 33992.1 hPa NNW 3.1 km/h   42 % 0 mm
16:02 -9.8 °C -16.9 °C 33992.1 hPa SSW 14.5 km/h 14.5 km/h 42 % 0 mm
16:07 -10 °C -17.3 °C 33992.1 hPa WSW 11.9 km/h 11.9 km/h 41 % 0 mm
16:12 -9.9 °C -17 °C 34029.3 hPa West 6 km/h 6 km/h 42 % 0 mm
16:17 -9.9 °C -17 °C 34029.3 hPa WSW 6 km/h 6 km/h 42 % 0 mm
16:22 -10 °C -17.1 °C 34029.3 hPa SW 6 km/h 6 km/h 42 % 0 mm
16:27 -10.2 °C -17.2 °C 34029.3 hPa NNE 11.9 km/h 11.9 km/h 42 % 0 mm
16:32 -10.6 °C -17.6 °C 34029.3 hPa East 11.9 km/h 11.9 km/h 42 % 0 mm
16:37 -10.8 °C -17.6 °C 34029.3 hPa ENE 22.5 km/h 22.5 km/h 43 % 0 mm
16:42 -10.8 °C -17.7 °C 34029.3 hPa ESE 20.9 km/h 20.9 km/h 43 % 0 mm
16:47 -10.9 °C -17.6 °C 34029.3 hPa ENE 17.9 km/h 17.9 km/h 44 % 0 mm
16:52 -11.1 °C -17.7 °C 34029.3 hPa ESE 17.9 km/h 17.9 km/h 44 % 0 mm
16:57 -11.1 °C -17.6 °C 34063.2 hPa East 29.8 km/h 29.8 km/h 45 % 0 mm
17:02 -11.2 °C -17.7 °C 34063.2 hPa ENE 17.9 km/h 17.9 km/h 45 % 0 mm
17:07 -11.3 °C -17.6 °C 34063.2 hPa North 15.6 km/h 15.6 km/h 46 % 0 mm
17:12 -11.3 °C -17.6 °C 34029.3 hPa East 9 km/h 9 km/h 46 % 0 mm
17:17 -11.3 °C -17.6 °C 34029.3 hPa ESE 15 km/h 15 km/h 46 % 0 mm
17:22 -11.4 °C -17.6 °C 34029.3 hPa ESE 15 km/h 15 km/h 46 % 0 mm
17:27 -11.4 °C -17.4 °C 34063.2 hPa ENE 6 km/h 6 km/h 47 % 0 mm
17:32 -11.4 °C -17.4 °C 34063.2 hPa ENE 8.5 km/h 8.5 km/h 47 % 0 mm
17:37 -11.4 °C -17.4 °C 34063.2 hPa East 15 km/h 15 km/h 47 % 0 mm
17:42 -11.4 °C -17.5 °C 34063.2 hPa NNE 9.3 km/h 9.3 km/h 47 % 0 mm
17:47 -11.5 °C -17.4 °C 34063.2 hPa East 15 km/h 15 km/h 48 % 0 mm
17:52 -11.5 °C -17.4 °C 34063.2 hPa East 12.7 km/h 12.7 km/h 48 % 0 mm
17:57 -11.5 °C -17.4 °C 34063.2 hPa ESE 10.3 km/h 10.3 km/h 48 % 0 mm
18:02 -11.6 °C -17.4 °C 34063.2 hPa NNE 15.3 km/h 15.3 km/h 48 % 0 mm
18:12 -11.6 °C -17.3 °C 34063.2 hPa ENE 15 km/h 15 km/h 49 % 0 mm
18:17 -11.6 °C -17.3 °C 34063.2 hPa ESE 17.9 km/h 17.9 km/h 49 % 0 mm
18:22 -11.7 °C -17.4 °C 34063.2 hPa East 15 km/h 15 km/h 49 % 0 mm
18:27 -11.7 °C -17.4 °C 34063.2 hPa ENE 15 km/h 15 km/h 49 % 0 mm
18:32 -11.7 °C -17.4 °C 34063.2 hPa East 15 km/h 15 km/h 49 % 0 mm
18:37 -11.7 °C -17.4 °C 34063.2 hPa East 15 km/h 15 km/h 49 % 0 mm
18:42 -11.7 °C -17.3 °C 34063.2 hPa ESE 12.2 km/h 12.2 km/h 50 % 0 mm
18:47 -11.8 °C -17.3 °C 34063.2 hPa ESE 20.9 km/h 20.9 km/h 50 % 0 mm
18:52 -11.8 °C -17.3 °C 34063.2 hPa NE 17.9 km/h 17.9 km/h 50 % 0 mm
18:57 -11.8 °C -17.4 °C 34063.2 hPa ENE 15 km/h 15 km/h 50 % 0 mm
19:02 -11.9 °C -17.4 °C 34063.2 hPa East 15 km/h 15 km/h 50 % 0 mm
19:07 -11.9 °C -17.5 °C 34063.2 hPa ENE 20.9 km/h 20.9 km/h 50 % 0 mm
19:12 -12 °C -17.6 °C 34097 hPa East 18.3 km/h 18.3 km/h 50 % 0 mm
19:17 -12 °C -17.4 °C 34097 hPa ESE 15 km/h 15 km/h 51 % 0 mm
19:22 -12.1 °C -17.4 °C 34097 hPa ESE 15 km/h 15 km/h 51 % 0 mm
19:27 -12.1 °C -17.5 °C 34097 hPa ENE 11.9 km/h 11.9 km/h 51 % 0 mm
19:32 -12.1 °C -17.5 °C 34097 hPa NNE 9 km/h 9 km/h 51 % 0 mm
19:37 -12.2 °C -17.6 °C 34097 hPa NNE 9 km/h 9 km/h 51 % 0 mm
19:42 -12.3 °C -17.7 °C 34097 hPa ENE 9 km/h 9.3 km/h 51 % 0 mm
19:47 -12.4 °C -17.8 °C 34097 hPa NNE 11.9 km/h 11.9 km/h 51 % 0 mm
19:52 -12.5 °C -17.9 °C 34097 hPa NE 11.9 km/h 11.9 km/h 51 % 0 mm
19:57 -12.6 °C -17.9 °C 34130.9 hPa ENE 11.9 km/h 11.9 km/h 51 % 0 mm
20:02 -12.7 °C -18 °C 34130.9 hPa NE 9 km/h 9 km/h 51 % 0 mm
20:07 -12.7 °C -18 °C 34130.9 hPa NNE 7.6 km/h 7.6 km/h 51 % 0 mm
20:12 -12.7 °C -18 °C 34130.9 hPa ENE 11.9 km/h 11.9 km/h 51 % 0 mm
20:17 -12.7 °C -18 °C 34130.9 hPa NE 9 km/h 9 km/h 51 % 0 mm
20:22 -12.7 °C -18 °C 34130.9 hPa ENE 6 km/h 6 km/h 51 % 0 mm
20:27 -12.7 °C -18 °C 34130.9 hPa NNE 9 km/h 9 km/h 51 % 0 mm
20:37 -12.7 °C -18 °C 34130.9 hPa ENE 12.7 km/h 12.7 km/h 51 % 0 mm
20:42 -12.7 °C -18 °C 34097 hPa NE 11.9 km/h 11.9 km/h 51 % 0 mm
20:47 -13 °C -18.3 °C 34097 hPa ENE 9 km/h 9 km/h 51 % 0 mm
20:52 -13 °C -18.3 °C 34097 hPa NE 9 km/h 9 km/h 51 % 0 mm
20:57 -13 °C -18.3 °C 34130.9 hPa NE 6 km/h 6 km/h 51 % 0 mm
21:02 -13 °C -18.3 °C 34130.9 hPa North 3.1 km/h 3.1 km/h 51 % 0 mm
21:07 -13 °C -18.3 °C 34130.9 hPa Calm     51 % 0 mm
21:12 -13 °C -18.3 °C 34130.9 hPa NNE 3.1 km/h   51 % 0 mm
21:17 -13 °C -18.3 °C 34130.9 hPa NNE 3.1 km/h   51 % 0 mm
21:22 -13.3 °C -18.4 °C 34130.9 hPa Calm     52 % 0 mm
21:27 -13.3 °C -18.4 °C 34130.9 hPa NNW 3.1 km/h   52 % 0 mm
21:32 -13.3 °C -18.5 °C 34130.9 hPa Calm     52 % 0 mm
21:37 -13.3 °C -18.5 °C 34130.9 hPa Calm     52 % 0 mm
21:42 -13.3 °C -18.5 °C 34164.7 hPa NNW 3.1 km/h 3.1 km/h 52 % 0 mm
21:47 -13.3 °C -18.5 °C 34164.7 hPa NNW 3.7 km/h 3.7 km/h 52 % 0 mm
21:52 -13.3 °C -18.5 °C 34164.7 hPa NNE 3.1 km/h 3.1 km/h 52 % 0 mm
21:57 -13.3 °C -18.5 °C 34164.7 hPa NNW 3.7 km/h 3.7 km/h 52 % 0 mm
22:02 -13.3 °C -18.5 °C 34164.7 hPa NNW 3.1 km/h   52 % 0 mm
22:07 -13.3 °C -18.5 °C 34164.7 hPa Calm     52 % 0 mm
22:12 -13.3 °C -18.5 °C 34198.6 hPa Calm     52 % 0 mm
22:17 -13.3 °C -18.5 °C 34198.6 hPa Calm     52 % 0 mm
22:22 -13.3 °C -18.5 °C 34198.6 hPa Calm     52 % 0 mm
22:27 -13.3 °C -18.5 °C 34198.6 hPa Calm     52 % 0 mm
22:32 -13.3 °C -18.5 °C 34198.6 hPa Calm     52 % 0 mm
22:37 -13.5 °C -18.5 °C 34198.6 hPa NE 3.1 km/h   53 % 0 mm
22:42 -13.5 °C -18.5 °C 34164.7 hPa NNE 9 km/h 9 km/h 53 % 0 mm
22:47 -13.5 °C -18.5 °C 34164.7 hPa NE 9 km/h 9 km/h 53 % 0 mm
22:52 -13.5 °C -18.5 °C 34164.7 hPa NNE 6.3 km/h 6.3 km/h 53 % 0 mm
22:57 -13.3 °C -18.2 °C 34198.6 hPa North 7.6 km/h 7.6 km/h 54 % 0 mm
23:02 -13.3 °C -18.2 °C 34198.6 hPa NNE 6 km/h 6 km/h 54 % 0 mm
23:07 -13.4 °C -18.2 °C 34198.6 hPa NE 3.1 km/h   54 % 0 mm
23:12 -13.4 °C -18.2 °C 34198.6 hPa Calm     54 % 0 mm
23:17 -13.4 °C -18.3 °C 34198.6 hPa NE 3.1 km/h   54 % 0 mm
23:22 -13.4 °C -18.3 °C 34198.6 hPa WSW 3.1 km/h 3.1 km/h 54 % 0 mm
23:27 -13.4 °C -18.3 °C 34164.7 hPa Calm     54 % 0 mm
23:32 -13.7 °C -18.5 °C 34164.7 hPa Calm     54 % 0 mm
Meteo Sesrovires
Elogis d' Weather Underground - 2 mb

Guio original per  Jim McMurry - jmcmurry@mwt.net Adaptat per a la plantilla per  Wim van der Kuil - Leuven-Template.eu

Trobareu la nostra informacio del temps tambe a:

Weather Underground

AWEKAS